Time;durP1;ratioP1;P1;durP2;ratioP2;P2;SDS_P1;SDS_P2;PMS_P1;PMS_P2;Temp;Humidity;BMP_temperature;BMP_pressure;BME280_temperature;BME280_humidity;BME280_pressure;Samples;Min_cycle;Max_cycle;Signal;HPM_P1;HPM_P2
2023/01/10 00:00:37;;;;;;;;;41.25;33.75;;;;;4.82;94.33;97417.13;4608171;28;102643;-72
2023/01/10 00:04:01;;;;;;;;;37.50;32.25;;;;;5.25;94.02;97501.75;4611895;28;102598;-74
2023/01/10 00:07:48;;;;;;;;;45.75;39.50;;;;;4.99;93.96;97458.69;4729211;28;102659;-73
2023/01/10 00:13:22;;;;;;;;;44.50;35.25;;;;;5.23;93.54;97495.75;4625265;28;106469;-73
2023/01/10 00:14:17;;;;;;;;;37.00;31.75;;;;;5.25;93.57;97493.72;4691702;28;103653;-73
2023/01/10 00:17:36;;;;;;;;;33.75;24.50;;;;;5.31;93.47;97492.94;4676699;28;101955;-73
2023/01/10 00:20:40;;;;;;;;;35.50;31.50;;;;;5.29;92.58;97504.88;4561553;28;107004;-73
2023/01/10 00:24:22;;;;;;;;;28.75;25.75;;;;;5.33;92.85;97509.66;4660247;28;106226;-73
2023/01/10 00:27:48;;;;;;;;;7.50;2.25;;;;;5.34;92.62;97515.84;4651541;28;102855;-74
2023/01/10 00:31:00;;;;;;;;;31.25;25.50;;;;;5.34;92.41;97522.03;4638952;28;101909;-73
2023/01/10 00:34:19;;;;;;;;;25.25;21.50;;;;;5.37;92.39;97521.63;4580339;28;102844;-73
2023/01/10 00:37:34;;;;;;;;;18.00;16.50;;;;;5.38;92.32;97517.94;4676217;28;106538;-73
2023/01/10 00:40:48;;;;;;;;;18.00;15.75;;;;;5.11;91.57;97480.41;4690388;28;102554;-73
2023/01/10 00:44:07;;;;;;;;;25.25;21.25;;;;;5.38;91.42;97527.84;4681706;28;102064;-73
2023/01/10 00:47:32;;;;;;;;;18.50;16.00;;;;;5.33;91.30;97523.06;4691254;28;101479;-73
2023/01/10 00:50:58;;;;;;;;;13.75;10.50;;;;;5.39;91.27;97540.22;4622516;28;106067;-74
2023/01/10 00:54:25;;;;;;;;;9.25;9.25;;;;;5.47;91.38;97555.31;4626504;28;103010;-73
2023/01/10 00:57:52;;;;;;;;;14.25;9.00;;;;;5.43;90.81;97552.22;4611882;28;108179;-73
2023/01/10 01:01:28;;;;;;;;;10.50;8.75;;;;;5.46;91.18;97564.38;4693731;28;102023;-73
2023/01/10 01:04:34;;;;;;;;;7.50;7.25;;;;;5.46;91.05;97567.91;4644575;28;102899;-76
2023/01/10 01:07:29;;;;;;;;;9.25;4.50;;;;;5.46;90.92;97572.44;4926435;27;1867216;-69
2023/01/10 01:12:42;;;;;;;;;7.25;6.50;;;;;5.47;91.29;97569.56;4966906;28;108159;-69
2023/01/10 01:15:09;;;;;;;;;2.75;2.75;;;;;5.47;91.70;97571.41;4977019;28;103701;-67
2023/01/10 01:17:36;;;;;;;;;5.75;3.00;;;;;5.33;91.09;97555.22;4956934;28;102099;-67
2023/01/10 01:20:03;;;;;;;;;5.75;5.75;;;;;5.38;91.29;97568.88;4951135;28;102413;-68
2023/01/10 01:22:30;;;;;;;;;7.75;6.50;;;;;5.39;91.75;97577.75;4950998;28;104017;-68
2023/01/10 01:24:57;;;;;;;;;4.50;4.50;;;;;5.39;91.77;97583.94;4953210;28;102381;-68
2023/01/10 01:27:24;;;;;;;;;12.50;9.00;;;;;5.36;91.78;97576.25;4954360;28;103215;-67
2023/01/10 01:29:51;;;;;;;;;25.50;18.50;;;;;5.26;92.54;97581.16;4947346;28;102021;-68
2023/01/10 01:32:18;;;;;;;;;19.50;16.75;;;;;5.27;93.03;97588.13;4953977;28;103979;-68
2023/01/10 01:34:45;;;;;;;;;14.00;13.75;;;;;5.28;93.09;97592.47;4958421;28;102281;-68
2023/01/10 01:37:12;;;;;;;;;13.00;11.25;;;;;5.26;93.87;97588.34;4954815;28;102035;-68
2023/01/10 01:39:38;;;;;;;;;13.25;11.75;;;;;5.21;94.05;97590.78;4958483;28;102084;-68
2023/01/10 01:42:05;;;;;;;;;17.25;14.75;;;;;5.13;94.44;97583.72;4951625;28;108335;-68
2023/01/10 01:44:38;;;;;;;;;17.25;16.75;;;;;5.02;95.03;97584.19;4949679;28;102095;-68
2023/01/10 01:47:12;;;;;;;;;25.25;22.75;;;;;4.91;95.47;97593.56;4955695;28;102439;-69
2023/01/10 01:49:43;;;;;;;;;26.25;21.00;;;;;4.87;96.24;97594.13;4940543;28;102380;-69
2023/01/10 01:52:17;;;;;;;;;26.75;21.00;;;;;4.84;96.58;97602.56;4929714;28;110435;-69
2023/01/10 01:54:45;;;;;;;;;25.75;22.00;;;;;4.77;97.17;97598.97;4934494;28;102336;-68
2023/01/10 01:57:16;;;;;;;;;35.00;25.75;;;;;4.73;97.41;97600.34;4934794;28;102152;-68
2023/01/10 01:59:46;;;;;;;;;37.25;29.00;;;;;4.64;98.01;97604.19;4932650;28;102346;-68
2023/01/10 02:02:17;;;;;;;;;28.50;24.00;;;;;4.66;98.55;97600.28;4934502;28;104013;-69
2023/01/10 02:04:53;;;;;;;;;34.50;24.50;;;;;4.59;98.68;97604.75;4931836;28;102051;-68
2023/01/10 02:07:22;;;;;;;;;30.00;24.25;;;;;4.61;98.78;97604.53;4933675;28;102389;-69
2023/01/10 02:10:09;;;;;;;;;27.00;24.00;;;;;4.53;98.77;97605.50;4936551;28;102073;-68
2023/01/10 02:13:00;;;;;;;;;40.25;32.50;;;;;4.40;99.93;97606.16;4920753;28;107758;-69
2023/01/10 02:15:42;;;;;;;;;25.50;22.75;;;;;4.46;99.72;97609.91;4931873;28;102277;-68
2023/01/10 02:18:24;;;;;;;;;21.00;20.50;;;;;4.48;100.00;97605.22;4923431;28;102079;-69
2023/01/10 02:21:38;;;;;;;;;29.75;26.00;;;;;4.42;100.00;97617.50;4925258;28;102340;-68
2023/01/10 02:24:50;;;;;;;;;33.75;28.50;;;;;4.36;100.00;97612.06;4927992;28;107377;-68
2023/01/10 02:28:01;;;;;;;;;27.25;23.25;;;;;4.40;100.00;97624.91;4924082;28;102555;-69
2023/01/10 02:30:48;;;;;;;;;23.00;19.25;;;;;4.43;100.00;97624.50;4916395;28;102120;-69
2023/01/10 02:33:36;;;;;;;;;28.50;21.25;;;;;4.41;100.00;97628.41;4918163;28;102575;-69
2023/01/10 02:36:48;;;;;;;;;29.00;22.75;;;;;4.40;100.00;97640.13;4915183;28;104141;-69
2023/01/10 02:39:15;;;;;;;;;36.50;27.00;;;;;4.29;100.00;97633.38;4920826;28;102222;-68
2023/01/10 02:42:05;;;;;;;;;32.25;24.25;;;;;4.32;100.00;97632.19;4924808;28;102156;-69
2023/01/10 02:44:49;;;;;;;;;30.75;25.00;;;;;4.29;100.00;97641.41;4919579;28;102568;-69
2023/01/10 02:47:16;;;;;;;;;25.50;23.00;;;;;4.34;100.00;97652.38;4922789;28;108427;-69
2023/01/10 02:49:46;;;;;;;;;20.75;16.50;;;;;4.35;100.00;97648.72;4921404;28;102601;-68
2023/01/10 02:52:19;;;;;;;;;19.50;16.25;;;;;4.34;100.00;97651.56;4926722;28;102011;-69
2023/01/10 02:54:48;;;;;;;;;29.00;23.25;;;;;4.30;100.00;97658.28;4920185;28;102572;-69
2023/01/10 02:57:46;;;;;;;;;28.75;27.25;;;;;4.28;100.00;97663.81;4919636;28;103991;-69
2023/01/10 03:00:31;;;;;;;;;31.75;23.50;;;;;4.26;100.00;97657.84;4928005;28;105022;-69
2023/01/10 03:03:08;;;;;;;;;24.50;22.75;;;;;4.25;100.00;97666.88;4916829;28;101983;-68
2023/01/10 03:05:53;;;;;;;;;32.50;27.75;;;;;4.22;100.00;97669.94;4920842;28;102641;-69
2023/01/10 03:08:27;;;;;;;;;25.50;19.25;;;;;4.24;100.00;97678.59;4925821;28;108702;-70
2023/01/10 03:11:01;;;;;;;;;36.00;30.75;;;;;4.06;100.00;97664.72;4920359;28;102165;-68
2023/01/10 03:13:48;;;;;;;;;42.25;32.50;;;;;4.11;100.00;97672.22;4925383;28;110769;-69
2023/01/10 03:16:19;;;;;;;;;28.00;21.00;;;;;4.17;100.00;97679.50;4923470;28;102498;-69
2023/01/10 03:18:52;;;;;;;;;26.00;23.50;;;;;4.14;100.00;97687.91;4919398;28;104166;-69
2023/01/10 03:21:22;;;;;;;;;30.25;25.75;;;;;4.12;100.00;97685.41;4917602;28;102180;-68
2023/01/10 03:23:55;;;;;;;;;30.50;30.25;;;;;4.08;100.00;97692.16;4917109;28;102272;-69
2023/01/10 03:26:31;;;;;;;;;29.50;24.50;;;;;4.09;100.00;97699.16;4920802;28;102094;-69
2023/01/10 03:29:06;;;;;;;;;27.25;23.25;;;;;4.09;100.00;97701.00;4915784;28;103998;-68
2023/01/10 03:31:56;;;;;;;;;28.25;22.00;;;;;4.09;100.00;97707.19;4922945;28;102373;-69
2023/01/10 03:34:24;;;;;;;;;28.25;23.50;;;;;4.08;100.00;97710.88;4923203;28;103120;-68
2023/01/10 03:37:17;;;;;;;;;24.50;19.75;;;;;4.13;100.00;97713.00;4917398;28;102470;-69
2023/01/10 03:39:59;;;;;;;;;34.50;23.25;;;;;4.08;100.00;97716.22;4926108;28;109169;-69
2023/01/10 03:45:47;;;;;;;;;26.25;22.25;;;;;4.12;100.00;97722.03;4912230;28;104215;-69
2023/01/10 03:48:15;;;;;;;;;15.50;12.25;;;;;4.15;100.00;97732.34;4919091;28;102550;-69
2023/01/10 03:50:44;;;;;;;;;24.25;21.50;;;;;4.13;100.00;97732.56;4922354;28;104136;-68
2023/01/10 03:53:14;;;;;;;;;16.00;16.00;;;;;4.15;100.00;97745.72;4922236;28;102449;-68
2023/01/10 03:55:43;;;;;;;;;24.00;21.00;;;;;4.11;100.00;97739.09;4923198;28;102622;-69
2023/01/10 03:58:10;;;;;;;;;17.00;13.25;;;;;4.17;100.00;97749.06;4925165;28;102082;-68
2023/01/10 04:00:38;;;;;;;;;15.50;13.00;;;;;4.16;100.00;97756.25;4916259;28;103978;-69
2023/01/10 04:03:05;;;;;;;;;19.50;15.00;;;;;4.07;100.00;97749.31;4917887;28;102380;-68
2023/01/10 04:05:32;;;;;;;;;15.00;13.75;;;;;3.87;100.00;97719.56;4917120;28;103081;-68
2023/01/10 04:07:59;;;;;;;;;16.75;14.00;;;;;4.09;100.00;97752.66;4927008;28;102185;-68
2023/01/10 04:10:28;;;;;;;;;14.50;10.25;;;;;4.09;100.00;97752.66;4920785;28;103975;-69
2023/01/10 04:13:00;;;;;;;;;13.00;10.75;;;;;4.06;100.00;97755.69;4919504;28;102649;-68
2023/01/10 04:15:27;;;;;;;;;12.25;8.00;;;;;4.10;100.00;97766.88;4919291;28;102255;-69
2023/01/10 04:17:55;;;;;;;;;10.00;8.00;;;;;3.99;100.00;97754.75;4922191;28;102250;-68
2023/01/10 04:20:25;;;;;;;;;15.25;13.00;;;;;3.98;100.00;97769.13;4923151;28;103956;-69
2023/01/10 04:22:53;;;;;;;;;14.75;10.50;;;;;4.01;100.00;97766.91;4921116;28;102349;-69
2023/01/10 04:25:22;;;;;;;;;9.50;7.50;;;;;4.04;100.00;97774.59;4914664;28;102077;-68
2023/01/10 04:27:50;;;;;;;;;11.75;9.00;;;;;4.01;100.00;97768.75;4918889;28;102587;-69
2023/01/10 04:30:19;;;;;;;;;6.50;6.50;;;;;4.02;100.00;97771.25;4923696;28;104056;-69
2023/01/10 04:32:46;;;;;;;;;6.00;5.00;;;;;4.09;100.00;97774.06;4923108;28;103204;-68
2023/01/10 04:35:14;;;;;;;;;6.75;4.50;;;;;4.02;100.00;97759.72;4922315;28;102191;-69
2023/01/10 04:37:42;;;;;;;;;8.75;6.00;;;;;4.09;100.00;97766.03;4922793;28;102425;-69
2023/01/10 04:40:09;;;;;;;;;2.00;2.00;;;;;4.14;100.00;97778.88;4917795;28;108792;-69
2023/01/10 04:42:36;;;;;;;;;5.00;3.00;;;;;4.15;100.00;97786.69;4928615;28;102522;-69
2023/01/10 04:45:04;;;;;;;;;5.00;5.00;;;;;4.09;100.00;97784.75;4919010;28;102286;-69
2023/01/10 04:47:31;;;;;;;;;7.50;5.00;;;;;4.09;100.00;97784.75;4925382;28;102368;-71
2023/01/10 04:49:58;;;;;;;;;7.00;5.00;;;;;4.12;99.89;97792.41;4920224;28;103443;-69
2023/01/10 04:52:27;;;;;;;;;5.00;3.00;;;;;4.13;99.76;97799.44;4925841;28;102351;-69
2023/01/10 04:54:54;;;;;;;;;4.50;4.50;;;;;4.08;99.47;97807.16;4922490;28;102307;-69
2023/01/10 04:57:21;;;;;;;;;3.00;3.00;;;;;4.08;100.00;97809.84;4918440;28;102204;-70
2023/01/10 04:59:47;;;;;;;;;3.25;2.25;;;;;4.09;99.99;97806.16;4923291;28;104176;-70
2023/01/10 05:02:15;;;;;;;;;6.25;5.00;;;;;3.99;99.44;97798.38;4921333;28;102108;-69
2023/01/10 05:04:42;;;;;;;;;6.25;3.75;;;;;4.06;99.23;97819.88;4930506;28;101945;-69
2023/01/10 05:07:11;;;;;;;;;5.00;3.50;;;;;3.98;99.19;97819.94;4927122;28;102181;-68
2023/01/10 05:09:38;;;;;;;;;7.00;5.50;;;;;3.95;100.00;97828.34;4923160;28;104026;-69
2023/01/10 05:12:05;;;;;;;;;6.50;5.75;;;;;3.94;100.00;97832.00;4923225;28;104340;-68
2023/01/10 05:14:32;;;;;;;;;6.00;6.00;;;;;3.86;100.00;97834.75;4925898;28;102461;-69
2023/01/10 05:16:59;;;;;;;;;6.25;6.00;;;;;3.88;100.00;97838.06;4930015;28;102741;-69
2023/01/10 05:19:25;;;;;;;;;10.25;9.00;;;;;3.84;100.00;97842.09;4922380;28;108086;-69
2023/01/10 05:21:52;;;;;;;;;7.00;6.00;;;;;3.82;100.00;97842.28;4920257;28;102384;-70
2023/01/10 05:24:19;;;;;;;;;13.50;9.50;;;;;3.89;100.00;97851.25;4902288;28;102382;-68
2023/01/10 05:26:46;;;;;;;;;7.00;6.75;;;;;3.90;100.00;97860.97;4918425;28;103829;-69
2023/01/10 05:29:13;;;;;;;;;8.00;7.00;;;;;3.92;100.00;97871.44;4928550;28;103993;-69
2023/01/10 05:31:41;;;;;;;;;7.00;6.00;;;;;3.95;100.00;97876.47;4919917;28;102242;-68
2023/01/10 05:34:11;;;;;;;;;9.00;9.00;;;;;3.93;100.00;97881.16;4923745;28;102483;-68
2023/01/10 05:36:39;;;;;;;;;14.50;7.25;;;;;3.97;100.00;97885.13;4928013;28;102942;-69
2023/01/10 05:39:06;;;;;;;;;11.50;10.00;;;;;3.95;100.00;97887.16;4922538;28;103960;-69
2023/01/10 05:41:33;;;;;;;;;9.25;8.00;;;;;3.96;100.00;97886.16;4922009;28;106604;-68
2023/01/10 05:44:00;;;;;;;;;15.75;12.50;;;;;3.96;100.00;97895.00;4918646;28;102356;-69
2023/01/10 05:46:28;;;;;;;;;12.25;10.50;;;;;3.96;100.00;97897.66;4929184;28;102162;-69
2023/01/10 05:48:55;;;;;;;;;15.75;15.00;;;;;3.90;100.00;97905.59;4920027;28;103552;-69
2023/01/10 05:51:22;;;;;;;;;28.75;21.75;;;;;3.87;100.00;97900.59;4922272;28;102027;-69
2023/01/10 05:53:49;;;;;;;;;20.00;16.00;;;;;3.92;100.00;97898.19;4926522;28;105067;-69
2023/01/10 05:56:16;;;;;;;;;23.25;20.00;;;;;3.76;100.00;97882.25;4922709;28;102578;-69
2023/01/10 05:58:43;;;;;;;;;22.00;17.50;;;;;3.87;100.00;97900.59;4921944;28;104048;-68
2023/01/10 06:01:15;;;;;;;;;24.50;19.50;;;;;3.93;100.00;97907.88;4915777;28;102636;-69
2023/01/10 06:03:42;;;;;;;;;18.00;13.50;;;;;3.96;100.00;97905.69;4926910;28;102021;-69
2023/01/10 06:06:09;;;;;;;;;22.75;19.50;;;;;3.96;100.00;97913.72;4927785;28;102823;-69
2023/01/10 06:08:36;;;;;;;;;13.00;12.50;;;;;4.00;100.00;97915.06;4921054;28;103984;-69
2023/01/10 06:11:04;;;;;;;;;21.00;19.25;;;;;3.99;100.00;97909.88;4921144;28;102098;-68
2023/01/10 06:13:32;;;;;;;;;15.00;13.50;;;;;4.04;100.00;97926.22;4921792;28;103084;-69
2023/01/10 06:15:59;;;;;;;;;11.75;11.00;;;;;4.10;100.00;97922.81;4922969;28;102060;-68
2023/01/10 06:18:26;;;;;;;;;21.50;17.50;;;;;4.03;100.00;97927.22;4922124;28;106528;-68
2023/01/10 06:20:53;;;;;;;;;22.50;20.75;;;;;4.00;100.00;97939.13;4927898;28;101865;-69
2023/01/10 06:23:20;;;;;;;;;21.50;19.75;;;;;4.03;100.00;97948.63;4922305;28;102354;-69
2023/01/10 06:25:47;;;;;;;;;21.00;18.50;;;;;3.99;100.00;97948.16;4941398;28;102069;-69
2023/01/10 06:28:14;;;;;;;;;31.00;27.00;;;;;3.83;100.00;97936.69;4915932;28;104024;-70
2023/01/10 06:30:42;;;;;;;;;29.50;25.00;;;;;3.91;100.00;97960.75;4929158;28;103118;-69
2023/01/10 06:33:10;;;;;;;;;26.50;23.50;;;;;3.96;100.00;97966.41;4919985;28;104105;-68
2023/01/10 06:35:37;;;;;;;;;22.50;20.25;;;;;4.00;100.00;97965.03;4929213;28;102090;-69
2023/01/10 06:38:04;;;;;;;;;14.25;13.25;;;;;4.05;100.00;97968.84;4923308;28;104276;-69
2023/01/10 06:40:31;;;;;;;;;13.25;13.00;;;;;4.07;100.00;97970.50;4922812;28;102267;-68
2023/01/10 06:42:59;;;;;;;;;13.25;12.00;;;;;4.10;100.00;97973.66;4925714;28;102337;-69
2023/01/10 06:45:26;;;;;;;;;26.25;16.75;;;;;4.07;100.00;97974.00;4922831;28;102496;-69
2023/01/10 06:47:53;;;;;;;;;13.00;10.75;;;;;4.11;100.00;97993.22;4931870;28;104117;-69
2023/01/10 06:50:20;;;;;;;;;24.00;19.00;;;;;4.06;100.00;97991.06;4922508;28;102172;-70
2023/01/10 06:53:04;;;;;;;;;13.50;12.25;;;;;4.10;100.00;97992.38;4923050;28;101969;-68
2023/01/10 06:55:31;;;;;;;;;32.75;26.75;;;;;3.99;100.00;97995.47;4932872;28;102703;-69
2023/01/10 06:58:03;;;;;;;;;23.50;18.75;;;;;4.02;100.00;98000.44;4922421;28;103823;-69
2023/01/10 07:00:30;;;;;;;;;21.25;20.00;;;;;4.02;100.00;98003.13;4925701;28;102237;-69
2023/01/10 07:03:00;;;;;;;;;24.00;23.50;;;;;3.98;100.00;98013.34;4918536;28;101983;-70
2023/01/10 07:05:29;;;;;;;;;29.50;23.00;;;;;3.95;100.00;98011.03;4923372;28;102001;-69
2023/01/10 07:07:57;;;;;;;;;29.00;24.25;;;;;3.82;100.00;97996.53;4926066;28;104192;-69
2023/01/10 07:10:24;;;;;;;;;18.50;16.75;;;;;3.96;100.00;98012.66;4917927;28;104266;-68
2023/01/10 07:12:54;;;;;;;;;27.00;22.50;;;;;3.88;100.00;98007.38;4927791;28;102432;-69
2023/01/10 17:19:54;;;;;;;;;49.33;40.67;;;;;3.96;100.00;98709.97;4724323;28;102400;-72
2023/01/10 17:23:19;;;;;;;;;42.00;37.75;;;;;3.79;100.00;98684.09;4604360;29;106148;-73
2023/01/10 17:26:52;;;;;;;;;47.75;38.00;;;;;3.89;100.00;98722.28;4559347;29;101826;-71
2023/01/10 17:30:25;;;;;;;;;52.33;39.33;;;;;3.86;100.00;98717.25;4542175;29;106756;-71
2023/01/10 17:33:50;;;;;;;;;57.00;40.33;;;;;3.82;100.00;98686.47;4543352;29;102692;-77
2023/01/10 17:36:28;;;;;;;;;66.67;44.67;;;;;3.78;100.00;98690.47;4704177;28;106605;-72
2023/01/10 17:39:49;;;;;;;;;50.33;38.00;;;;;3.68;100.00;98665.63;4708625;28;101834;-73
2023/01/10 17:43:35;;;;;;;;;54.75;41.00;;;;;3.91;100.00;98720.31;4562722;29;102541;-72
2023/01/10 17:47:25;;;;;;;;;46.33;38.00;;;;;3.79;100.00;98713.50;4610276;29;102266;-72
2023/01/10 17:51:27;;;;;;;;;50.75;40.50;;;;;3.84;100.00;98733.44;4626845;29;106083;-72
2023/01/10 17:54:35;;;;;;;;;44.25;37.75;;;;;3.87;100.00;98732.31;4517891;29;103287;-73
2023/01/10 17:57:43;;;;;;;;;43.00;37.00;;;;;3.88;100.00;98726.78;4635876;29;102074;-72
2023/01/10 18:05:05;;;;;;;;;48.33;36.33;;;;;3.76;100.00;98738.75;4706462;29;102515;-72
2023/01/10 18:09:14;;;;;;;;;46.33;38.67;;;;;3.72;100.00;98748.06;4721661;29;101576;-72
2023/01/10 18:12:54;;;;;;;;;48.75;38.50;;;;;3.74;100.00;98753.28;4648864;29;101715;-73
2023/01/10 18:16:25;;;;;;;;;47.25;36.00;;;;;3.79;100.00;98750.94;4613800;29;102580;-73
2023/01/10 18:28:28;;;;;;;;;39.50;31.00;;;;;3.59;100.00;98732.41;4449913;29;102442;-73
2023/01/10 18:31:19;;;;;;;;;57.67;42.67;;;;;3.66;100.00;98748.66;4523159;29;103080;-76
2023/01/10 18:33:55;;;;;;;;;56.00;39.00;;;;;3.57;100.00;98753.09;4490449;29;104127;-75
2023/01/10 18:36:45;;;;;;;;;52.25;41.25;;;;;3.59;100.00;98761.84;4478457;29;103391;-76
2023/01/10 18:40:17;;;;;;;;;43.25;35.25;;;;;3.64;99.70;98766.72;4518666;29;103361;-73
2023/01/10 18:43:03;;;;;;;;;54.00;40.00;;;;;3.62;100.00;98757.16;4604955;29;103036;-76
2023/01/10 18:45:49;;;;;;;;;48.00;37.50;;;;;3.35;99.74;98702.78;4574447;29;104857;-72
2023/01/10 18:52:19;;;;;;;;;47.25;38.25;;;;;3.64;99.69;98752.50;4648318;28;101268;-73
2023/01/10 18:55:40;;;;;;;;;35.25;30.50;;;;;3.67;99.89;98755.72;4556390;29;102762;-73
2023/01/10 18:59:05;;;;;;;;;41.75;33.25;;;;;3.43;99.87;98716.22;4505199;29;107331;-73
2023/01/10 19:02:21;;;;;;;;;37.75;31.25;;;;;3.79;99.54;98772.34;4499379;29;101613;-74
2023/01/10 19:05:52;;;;;;;;;49.00;41.00;;;;;3.74;100.00;98780.00;4510968;29;102023;-76
2023/01/10 19:09:18;;;;;;;;;54.33;41.67;;;;;3.71;99.82;98781.13;4577517;29;101611;-73
2023/01/10 19:16:19;;;;;;;;;38.67;33.33;;;;;3.63;100.00;98774.88;4557454;28;107995;-73
2023/01/10 19:20:05;;;;;;;;;42.00;36.50;;;;;3.70;100.00;98786.63;4547062;29;102798;-73
2023/01/10 19:22:50;;;;;;;;;52.67;41.67;;;;;3.63;100.00;98775.72;4584190;28;101518;-75
2023/01/10 19:25:22;;;;;;;;;46.33;39.67;;;;;3.67;100.00;98782.44;4626740;28;102946;-74
2023/01/10 19:28:21;;;;;;;;;43.25;32.75;;;;;3.70;100.00;98779.44;4539406;28;101807;-74
2023/01/10 19:31:35;;;;;;;;;48.00;39.75;;;;;3.77;100.00;98782.38;4512855;29;102541;-74
2023/01/10 19:34:30;;;;;;;;;52.33;42.33;;;;;3.68;100.00;98788.63;4531151;28;102493;-72
2023/01/10 19:37:01;;;;;;;;;57.33;41.33;;;;;3.65;100.00;98778.25;4687102;28;108881;-73
2023/01/10 19:40:25;;;;;;;;;59.00;44.00;;;;;3.65;100.00;98794.28;4640087;28;101610;-74
2023/01/10 19:44:05;;;;;;;;;53.67;43.00;;;;;3.32;100.00;98745.88;4487051;28;102817;-74
2023/01/10 19:47:11;;;;;;;;;55.67;41.00;;;;;3.59;100.00;98795.75;4637031;28;101627;-75
2023/01/10 19:49:51;;;;;;;;;55.67;41.33;;;;;3.54;100.00;98795.34;4624148;28;104559;-73
2023/01/10 19:52:50;;;;;;;;;50.00;38.50;;;;;3.54;100.00;98798.88;4591256;29;103198;-74
2023/01/10 19:56:42;;;;;;;;;41.50;32.25;;;;;3.59;100.00;98793.91;4552450;28;102547;-75
2023/01/10 19:59:52;;;;;;;;;33.50;29.25;;;;;3.64;100.00;98797.97;4653310;28;101913;-72
2023/01/10 20:03:16;;;;;;;;;37.00;31.75;;;;;3.63;100.00;98804.28;4538425;28;103414;-74
2023/01/10 20:06:02;;;;;;;;;53.67;40.00;;;;;3.64;100.00;98800.63;4584741;28;101838;-74
2023/01/10 20:08:36;;;;;;;;;35.25;29.00;;;;;3.68;100.00;98804.69;4578779;28;102228;-72
2023/01/10 20:11:50;;;;;;;;;38.75;33.00;;;;;3.72;100.00;98806.91;4644126;28;103242;-74
2023/01/10 20:19:22;;;;;;;;;47.33;39.67;;;;;3.63;100.00;98804.28;4688238;28;102012;-74
2023/01/10 20:27:15;;;;;;;;;72.67;52.67;;;;;3.41;100.00;98816.28;4677191;28;103860;-72
2023/01/10 20:29:59;;;;;;;;;61.33;45.33;;;;;3.38;100.00;98820.06;4604024;28;106840;-75
2023/01/10 20:33:35;;;;;;;;;58.33;39.33;;;;;3.37;100.00;98813.06;4607572;29;101960;-73
2023/01/10 20:36:40;;;;;;;;;58.00;42.67;;;;;3.38;100.00;98814.72;4507316;29;102572;-75
2023/01/10 20:39:31;;;;;;;;;51.50;37.25;;;;;3.40;100.00;98806.56;4574806;29;103054;-74
2023/01/10 20:46:55;;;;;;;;;52.50;42.50;;;;;3.54;100.00;98828.28;4583464;29;101995;-72
2023/01/10 20:50:16;;;;;;;;;55.00;44.00;;;;;3.52;100.00;98830.25;4472718;28;102965;-74
2023/01/10 20:53:40;;;;;;;;;45.67;40.00;;;;;3.24;100.00;98785.03;4471708;29;102455;-74
2023/01/10 20:57:23;;;;;;;;;40.50;28.25;;;;;3.58;100.00;98837.66;4564381;28;106818;-75
2023/01/10 21:00:37;;;;;;;;;46.00;38.50;;;;;3.59;100.00;98833.16;4699855;28;101925;-73
2023/01/10 21:03:58;;;;;;;;;34.75;25.00;;;;;3.71;100.00;98841.78;4768686;28;102285;-72
2023/01/10 21:08:02;;;;;;;;;40.75;33.75;;;;;3.72;99.75;98835.47;4723843;28;102162;-74
2023/01/10 21:11:42;;;;;;;;;43.25;32.75;;;;;3.65;100.00;98837.06;4643240;28;106433;-76
2023/01/10 21:15:30;;;;;;;;;32.00;27.75;;;;;3.76;99.90;98835.00;4686272;28;102349;-73
2023/01/10 21:19:12;;;;;;;;;26.00;21.00;;;;;3.80;99.37;98832.88;4597051;29;102520;-73
2023/01/10 21:22:17;;;;;;;;;31.50;25.75;;;;;3.78;99.48;98829.50;4496135;29;101914;-74
2023/01/10 21:29:35;;;;;;;;;48.50;37.25;;;;;3.42;99.59;98788.56;4590347;28;103652;-72
2023/01/10 21:32:49;;;;;;;;;33.00;24.75;;;;;3.80;99.61;98830.19;4504052;29;103591;-72
2023/01/10 21:36:04;;;;;;;;;32.25;24.00;;;;;3.83;99.45;98835.22;4512560;29;102993;-72
2023/01/10 21:39:23;;;;;;;;;25.50;20.25;;;;;3.78;99.04;98833.00;4623845;29;106350;-72
2023/01/10 21:42:43;;;;;;;;;26.25;23.25;;;;;3.84;98.78;98855.63;4562273;29;101901;-72
2023/01/10 21:46:08;;;;;;;;;48.50;38.50;;;;;3.65;100.00;98858.47;4545981;28;103205;-73
2023/01/10 21:49:33;;;;;;;;;59.00;41.00;;;;;3.71;100.00;98863.19;4530289;28;103020;-72
2023/01/10 21:52:44;;;;;;;;;28.00;23.00;;;;;3.81;100.00;98866.66;4511210;28;106269;-72
2023/01/10 21:56:06;;;;;;;;;27.75;21.00;;;;;3.85;99.60;98865.34;4523333;29;102871;-73
2023/01/10 21:59:09;;;;;;;;;47.00;38.00;;;;;3.75;99.82;98875.25;4536392;29;102969;-72
2023/01/10 22:02:41;;;;;;;;;41.75;38.25;;;;;3.77;99.60;98873.28;4430853;29;101667;-73
2023/01/10 22:05:50;;;;;;;;;25.75;21.75;;;;;3.86;99.98;98878.56;4558197;28;108642;-72
2023/01/10 22:08:52;;;;;;;;;31.50;27.25;;;;;3.84;99.51;98869.00;4520470;28;103083;-72
2023/01/10 22:11:52;;;;;;;;;26.00;20.50;;;;;3.74;99.33;98839.66;4601035;28;102750;-75
2023/01/10 22:15:06;;;;;;;;;16.25;15.75;;;;;3.96;99.00;98865.94;4550769;28;101769;-74
2023/01/10 22:18:21;;;;;;;;;7.75;7.75;;;;;3.74;98.97;98825.47;4588458;28;102243;-74
2023/01/10 22:21:39;;;;;;;;;7.50;7.25;;;;;3.93;98.98;98847.53;4526995;29;102879;-73
2023/01/10 22:25:02;;;;;;;;;11.00;6.00;;;;;4.01;98.18;98860.13;4528124;29;101992;-72
2023/01/10 22:28:20;;;;;;;;;10.00;7.75;;;;;4.04;98.52;98865.19;4506494;28;101855;-73
2023/01/10 22:31:27;;;;;;;;;11.50;10.00;;;;;4.09;98.88;98870.09;4527588;28;106108;-72
2023/01/10 22:34:47;;;;;;;;;6.75;6.00;;;;;4.13;98.89;98856.25;4553788;28;103115;-73
2023/01/10 22:37:58;;;;;;;;;7.00;6.25;;;;;4.11;97.97;98863.59;4495995;28;102422;-71
2023/01/10 22:41:25;;;;;;;;;4.50;4.00;;;;;4.13;98.24;98858.94;4518415;28;102775;-71
2023/01/10 22:44:26;;;;;;;;;8.00;7.00;;;;;4.17;98.06;98859.47;4529326;29;107222;-72
2023/01/10 22:47:48;;;;;;;;;5.00;5.00;;;;;4.18;98.25;98856.63;4514250;28;101775;-71
2023/01/10 22:50:53;;;;;;;;;4.50;2.75;;;;;4.19;98.20;98865.50;4537435;29;102899;-72
2023/01/10 22:53:57;;;;;;;;;13.50;11.50;;;;;4.12;97.34;98865.28;4509159;29;101806;-72
2023/01/10 22:56:57;;;;;;;;;12.00;11.00;;;;;4.11;98.16;98860.06;4464436;28;106641;-71
2023/01/10 23:00:21;;;;;;;;;23.50;16.50;;;;;4.10;98.29;98864.56;4523331;28;102176;-74
2023/01/10 23:03:41;;;;;;;;;21.25;17.75;;;;;4.06;97.91;98857.84;4520864;28;101661;-72
2023/01/10 23:06:42;;;;;;;;;21.25;17.75;;;;;4.05;98.26;98867.69;4517762;28;102715;-71
2023/01/10 23:09:25;;;;;;;;;39.25;34.50;;;;;3.95;98.26;98866.13;4463255;28;107358;-71
2023/01/10 23:12:25;;;;;;;;;42.75;34.00;;;;;3.94;98.77;98872.44;4494472;29;101684;-72
2023/01/10 23:15:44;;;;;;;;;43.00;33.50;;;;;3.93;99.43;98876.97;4437576;29;101796;-71
2023/01/10 23:18:59;;;;;;;;;31.50;27.75;;;;;3.93;99.49;98862.75;4459465;29;102561;-71
2023/01/10 23:22:08;;;;;;;;;26.00;20.25;;;;;3.96;99.69;98863.28;4473959;28;107070;-72
2023/01/10 23:25:36;;;;;;;;;24.75;16.75;;;;;3.99;99.23;98854.13;4540562;29;103259;-71
2023/01/10 23:28:45;;;;;;;;;36.75;29.75;;;;;3.85;99.02;98843.94;4445703;28;103227;-74
2023/01/10 23:35:31;;;;;;;;;45.50;39.50;;;;;3.78;99.57;98856.25;4765983;28;107895;-71
2023/01/10 23:37:58;;;;;;;;;45.00;34.00;;;;;3.86;100.00;98862.53;4774079;29;103339;-70
2023/01/10 23:40:26;;;;;;;;;25.00;19.75;;;;;3.92;99.77;98851.19;4777486;29;103524;-71
2023/01/10 23:42:53;;;;;;;;;44.25;36.25;;;;;3.88;98.68;98857.00;4773649;29;102338;-70
2023/01/10 23:45:19;;;;;;;;;43.50;34.75;;;;;3.86;99.91;98861.69;4765765;29;103994;-71
2023/01/10 23:47:46;;;;;;;;;34.00;26.00;;;;;3.89;100.00;98853.34;4775594;29;105058;-71
2023/01/10 23:50:13;;;;;;;;;25.25;24.75;;;;;3.95;99.80;98856.25;4767250;29;102259;-72
2023/01/10 23:52:40;;;;;;;;;19.00;16.75;;;;;4.00;100.00;98848.63;4776602;29;102962;-71
2023/01/10 23:55:07;;;;;;;;;20.50;18.50;;;;;3.99;98.95;98857.63;4774785;29;104311;-72